sensor_id;sensor_type;location;lat;lon;timestamp;pressure;altitude;pressure_sealevel;temperature;humidity
10006;BME280;5042;42.626;23.382;2024-01-10T00:00:20;148119.28;;;-3.89;100.00
10006;BME280;5042;42.626;23.382;2024-01-10T00:02:47;148152.56;;;-3.75;100.00
10006;BME280;5042;42.626;23.382;2024-01-10T00:05:14;148120.56;;;-3.88;100.00
10006;BME280;5042;42.626;23.382;2024-01-10T00:07:40;148116.69;;;-3.90;100.00
10006;BME280;5042;42.626;23.382;2024-01-10T00:10:08;148116.69;;;-3.90;100.00
10006;BME280;5042;42.626;23.382;2024-01-10T00:12:36;148092.34;;;-3.99;100.00
10006;BME280;5042;42.626;23.382;2024-01-10T00:15:04;148062.88;;;-4.11;100.00
10006;BME280;5042;42.626;23.382;2024-01-10T00:17:31;148014.19;;;-4.31;100.00
10006;BME280;5042;42.626;23.382;2024-01-10T00:19:58;148079.53;;;-4.05;100.00
10006;BME280;5042;42.626;23.382;2024-01-10T00:22:25;148114.16;;;-3.91;100.00
10006;BME280;5042;42.626;23.382;2024-01-10T00:24:52;148125.69;;;-3.86;100.00
10006;BME280;5042;42.626;23.382;2024-01-10T00:27:19;148157.69;;;-3.73;100.00
10006;BME280;5042;42.626;23.382;2024-01-10T00:29:47;148173.09;;;-3.67;100.00
10006;BME280;5042;42.626;23.382;2024-01-10T00:32:14;148201.31;;;-3.56;100.00
10006;BME280;5042;42.626;23.382;2024-01-10T00:34:41;148203.84;;;-3.55;100.00
10006;BME280;5042;42.626;23.382;2024-01-10T00:37:08;148219.25;;;-3.49;100.00
10006;BME280;5042;42.626;23.382;2024-01-10T00:39:35;148210.25;;;-3.52;100.00
10006;BME280;5042;42.626;23.382;2024-01-10T00:42:02;148216.66;;;-3.50;100.00
10006;BME280;5042;42.626;23.382;2024-01-10T00:44:29;148270.50;;;-3.28;100.00
10006;BME280;5042;42.626;23.382;2024-01-10T00:46:57;148260.25;;;-3.32;100.00
10006;BME280;5042;42.626;23.382;2024-01-10T00:49:24;148244.88;;;-3.38;100.00
10006;BME280;5042;42.626;23.382;2024-01-10T00:51:51;148216.66;;;-3.50;100.00
10006;BME280;5042;42.626;23.382;2024-01-10T00:54:17;148221.81;;;-3.48;100.00
10006;BME280;5042;42.626;23.382;2024-01-10T00:56:44;148200.00;;;-3.56;100.00
10006;BME280;5042;42.626;23.382;2024-01-10T00:59:11;148244.88;;;-3.38;100.00
10006;BME280;5042;42.626;23.382;2024-01-10T01:01:37;148265.38;;;-3.30;100.00
10006;BME280;5042;42.626;23.382;2024-01-10T01:04:05;148252.56;;;-3.35;100.00
10006;BME280;5042;42.626;23.382;2024-01-10T01:06:32;148239.75;;;-3.41;100.00
10006;BME280;5042;42.626;23.382;2024-01-10T01:08:59;148250.03;;;-3.36;100.00
10006;BME280;5042;42.626;23.382;2024-01-10T01:11:26;148241.03;;;-3.40;100.00
10006;BME280;5042;42.626;23.382;2024-01-10T01:13:53;148237.22;;;-3.42;100.00
10006;BME280;5042;42.626;23.382;2024-01-10T01:16:20;148235.88;;;-3.42;100.00
10006;BME280;5042;42.626;23.382;2024-01-10T01:18:47;148266.69;;;-3.30;100.00
10006;BME280;5042;42.626;23.382;2024-01-10T01:21:15;148235.88;;;-3.42;100.00
10006;BME280;5042;42.626;23.382;2024-01-10T01:23:42;148276.91;;;-3.26;100.00
10006;BME280;5042;42.626;23.382;2024-01-10T01:26:09;148279.50;;;-3.25;100.00
10006;BME280;5042;42.626;23.382;2024-01-10T01:28:38;148243.63;;;-3.39;100.00
10006;BME280;5042;42.626;23.382;2024-01-10T01:31:05;148180.78;;;-3.64;100.00
10006;BME280;5042;42.626;23.382;2024-01-10T01:33:32;148184.63;;;-3.63;100.00
10006;BME280;5042;42.626;23.382;2024-01-10T01:35:59;148178.25;;;-3.65;100.00
10006;BME280;5042;42.626;23.382;2024-01-10T01:38:27;148146.16;;;-3.78;100.00
10006;BME280;5042;42.626;23.382;2024-01-10T01:40:54;148188.44;;;-3.61;100.00
10006;BME280;5042;42.626;23.382;2024-01-10T01:43:23;148193.59;;;-3.59;100.00
10006;BME280;5042;42.626;23.382;2024-01-10T01:45:51;148144.91;;;-3.78;100.00
10006;BME280;5042;42.626;23.382;2024-01-10T01:48:19;148128.22;;;-3.85;100.00
10006;BME280;5042;42.626;23.382;2024-01-10T01:50:47;148173.09;;;-3.67;100.00
10006;BME280;5042;42.626;23.382;2024-01-10T01:53:16;148167.97;;;-3.69;100.00
10006;BME280;5042;42.626;23.382;2024-01-10T01:55:45;148171.84;;;-3.68;100.00
10006;BME280;5042;42.626;23.382;2024-01-10T01:58:13;148206.41;;;-3.54;100.00
10006;BME280;5042;42.626;23.382;2024-01-10T02:00:40;148243.63;;;-3.39;100.00
10006;BME280;5042;42.626;23.382;2024-01-10T02:03:09;148183.31;;;-3.63;100.00
10006;BME280;5042;42.626;23.382;2024-01-10T02:05:36;148230.75;;;-3.44;100.00
10006;BME280;5042;42.626;23.382;2024-01-10T02:08:04;148194.88;;;-3.58;100.00
10006;BME280;5042;42.626;23.382;2024-01-10T02:10:31;148161.56;;;-3.72;100.00
10006;BME280;5042;42.626;23.382;2024-01-10T02:13:00;148187.19;;;-3.62;100.00
10006;BME280;5042;42.626;23.382;2024-01-10T02:15:27;148198.72;;;-3.57;100.00
10006;BME280;5042;42.626;23.382;2024-01-10T02:17:54;148180.78;;;-3.64;100.00
10006;BME280;5042;42.626;23.382;2024-01-10T02:20:22;148150.03;;;-3.76;100.00
10006;BME280;5042;42.626;23.382;2024-01-10T02:22:49;148160.28;;;-3.72;100.00
10006;BME280;5042;42.626;23.382;2024-01-10T02:25:18;148126.94;;;-3.86;100.00
10006;BME280;5042;42.626;23.382;2024-01-10T02:27:45;148134.63;;;-3.83;100.00
10006;BME280;5042;42.626;23.382;2024-01-10T02:30:12;148161.56;;;-3.72;100.00
10006;BME280;5042;42.626;23.382;2024-01-10T02:32:39;148165.38;;;-3.70;100.00
10006;BME280;5042;42.626;23.382;2024-01-10T02:35:07;148169.25;;;-3.69;100.00
10006;BME280;5042;42.626;23.382;2024-01-10T02:37:34;148193.59;;;-3.59;100.00
10006;BME280;5042;42.626;23.382;2024-01-10T02:40:01;148198.72;;;-3.57;100.00
10006;BME280;5042;42.626;23.382;2024-01-10T02:42:30;148173.09;;;-3.67;100.00
10006;BME280;5042;42.626;23.382;2024-01-10T02:44:57;148155.16;;;-3.74;100.00
10006;BME280;5042;42.626;23.382;2024-01-10T02:47:24;148153.88;;;-3.75;100.00
10006;BME280;5042;42.626;23.382;2024-01-10T02:49:51;148160.28;;;-3.72;100.00
10006;BME280;5042;42.626;23.382;2024-01-10T02:52:18;148124.41;;;-3.87;100.00
10006;BME280;5042;42.626;23.382;2024-01-10T02:54:46;148120.56;;;-3.88;100.00
10006;BME280;5042;42.626;23.382;2024-01-10T02:57:13;148129.50;;;-3.85;100.00
10006;BME280;5042;42.626;23.382;2024-01-10T02:59:41;148105.16;;;-3.94;100.00
10006;BME280;5042;42.626;23.382;2024-01-10T03:02:08;148119.28;;;-3.89;100.00
10006;BME280;5042;42.626;23.382;2024-01-10T03:04:35;148130.81;;;-3.84;100.00
10006;BME280;5042;42.626;23.382;2024-01-10T03:07:02;148110.28;;;-3.92;100.00
10006;BME280;5042;42.626;23.382;2024-01-10T03:09:29;148103.88;;;-3.95;100.00
10006;BME280;5042;42.626;23.382;2024-01-10T03:11:56;148094.94;;;-3.98;100.00
10006;BME280;5042;42.626;23.382;2024-01-10T03:14:22;148111.56;;;-3.92;100.00
10006;BME280;5042;42.626;23.382;2024-01-10T03:16:51;148138.50;;;-3.81;100.00
10006;BME280;5042;42.626;23.382;2024-01-10T03:19:18;147998.81;;;-4.37;100.00
10006;BME280;5042;42.626;23.382;2024-01-10T03:21:45;148106.47;;;-3.94;100.00
10006;BME280;5042;42.626;23.382;2024-01-10T03:24:12;148092.34;;;-3.99;100.00
10006;BME280;5042;42.626;23.382;2024-01-10T03:26:39;148107.75;;;-3.93;100.00
10006;BME280;5042;42.626;23.382;2024-01-10T03:29:06;148111.56;;;-3.92;100.00
10006;BME280;5042;42.626;23.382;2024-01-10T03:31:33;148106.47;;;-3.94;100.00
10006;BME280;5042;42.626;23.382;2024-01-10T03:34:01;148101.34;;;-3.96;100.00
10006;BME280;5042;42.626;23.382;2024-01-10T03:36:28;148093.63;;;-3.99;100.00
10006;BME280;5042;42.626;23.382;2024-01-10T03:38:55;148101.34;;;-3.96;100.00
10006;BME280;5042;42.626;23.382;2024-01-10T03:41:22;148114.16;;;-3.91;100.00
10006;BME280;5042;42.626;23.382;2024-01-10T03:43:49;148080.81;;;-4.04;100.00
10006;BME280;5042;42.626;23.382;2024-01-10T03:46:16;148060.31;;;-4.12;100.00
10006;BME280;5042;42.626;23.382;2024-01-10T03:48:43;148080.81;;;-4.04;100.00
10006;BME280;5042;42.626;23.382;2024-01-10T03:51:16;148074.41;;;-4.07;100.00
10006;BME280;5042;42.626;23.382;2024-01-10T03:53:43;148150.03;;;-3.76;100.00
10006;BME280;5042;42.626;23.382;2024-01-10T03:56:11;148132.09;;;-3.84;100.00
10006;BME280;5042;42.626;23.382;2024-01-10T03:58:38;148173.09;;;-3.67;100.00
10006;BME280;5042;42.626;23.382;2024-01-10T04:01:05;148137.22;;;-3.81;100.00
10006;BME280;5042;42.626;23.382;2024-01-10T04:03:32;148093.63;;;-3.99;100.00
10006;BME280;5042;42.626;23.382;2024-01-10T04:06:00;148158.97;;;-3.73;100.00
10006;BME280;5042;42.626;23.382;2024-01-10T04:08:29;148180.78;;;-3.64;100.00
10006;BME280;5042;42.626;23.382;2024-01-10T04:10:56;148206.41;;;-3.54;100.00
10006;BME280;5042;42.626;23.382;2024-01-10T04:13:23;148194.88;;;-3.58;100.00
10006;BME280;5042;42.626;23.382;2024-01-10T04:15:50;148220.53;;;-3.48;100.00
10006;BME280;5042;42.626;23.382;2024-01-10T04:18:17;148221.81;;;-3.48;100.00
10006;BME280;5042;42.626;23.382;2024-01-10T04:20:43;148234.63;;;-3.43;100.00
10006;BME280;5042;42.626;23.382;2024-01-10T04:23:10;148088.53;;;-4.01;100.00
10006;BME280;5042;42.626;23.382;2024-01-10T04:25:39;148242.28;;;-3.39;100.00
10006;BME280;5042;42.626;23.382;2024-01-10T04:28:06;148282.06;;;-3.24;100.00
10006;BME280;5042;42.626;23.382;2024-01-10T04:30:33;148267.97;;;-3.29;100.00
10006;BME280;5042;42.626;23.382;2024-01-10T04:32:59;148270.50;;;-3.28;100.00
10006;BME280;5042;42.626;23.382;2024-01-10T04:35:26;148229.47;;;-3.45;100.00
10006;BME280;5042;42.626;23.382;2024-01-10T04:37:53;148234.63;;;-3.43;100.00
10006;BME280;5042;42.626;23.382;2024-01-10T04:40:20;148253.84;;;-3.35;100.00
10006;BME280;5042;42.626;23.382;2024-01-10T04:42:48;148241.03;;;-3.40;100.00
10006;BME280;5042;42.626;23.382;2024-01-10T04:45:16;148228.22;;;-3.45;100.00
10006;BME280;5042;42.626;23.382;2024-01-10T04:47:43;148221.81;;;-3.48;100.00
10006;BME280;5042;42.626;23.382;2024-01-10T04:50:10;148230.75;;;-3.44;100.00
10006;BME280;5042;42.626;23.382;2024-01-10T04:52:37;148224.34;;;-3.47;100.00
10006;BME280;5042;42.626;23.382;2024-01-10T04:55:05;148207.72;;;-3.53;100.00
10006;BME280;5042;42.626;23.382;2024-01-10T04:57:33;148239.75;;;-3.41;100.00
10006;BME280;5042;42.626;23.382;2024-01-10T05:00:02;148257.69;;;-3.33;100.00
10006;BME280;5042;42.626;23.382;2024-01-10T05:02:30;148269.25;;;-3.29;100.00
10006;BME280;5042;42.626;23.382;2024-01-10T05:04:57;148283.31;;;-3.23;100.00
10006;BME280;5042;42.626;23.382;2024-01-10T05:07:25;148280.78;;;-3.24;100.00
10006;BME280;5042;42.626;23.382;2024-01-10T05:09:51;148255.16;;;-3.34;100.00
10006;BME280;5042;42.626;23.382;2024-01-10T05:12:18;148280.78;;;-3.24;100.00
10006;BME280;5042;42.626;23.382;2024-01-10T05:14:45;148255.16;;;-3.34;100.00
10006;BME280;5042;42.626;23.382;2024-01-10T05:17:14;148214.13;;;-3.51;100.00
10006;BME280;5042;42.626;23.382;2024-01-10T05:19:40;148183.31;;;-3.63;100.00
10006;BME280;5042;42.626;23.382;2024-01-10T05:22:07;148157.69;;;-3.73;100.00
10006;BME280;5042;42.626;23.382;2024-01-10T05:24:35;148148.75;;;-3.77;100.00
10006;BME280;5042;42.626;23.382;2024-01-10T05:27:02;148139.75;;;-3.80;100.00
10006;BME280;5042;42.626;23.382;2024-01-10T05:29:29;148170.50;;;-3.68;100.00
10006;BME280;5042;42.626;23.382;2024-01-10T05:31:56;148189.78;;;-3.60;100.00
10006;BME280;5042;42.626;23.382;2024-01-10T05:34:24;148191.06;;;-3.60;100.00
10006;BME280;5042;42.626;23.382;2024-01-10T05:36:51;148162.84;;;-3.71;100.00
10006;BME280;5042;42.626;23.382;2024-01-10T05:39:19;148175.66;;;-3.66;100.00
10006;BME280;5042;42.626;23.382;2024-01-10T05:41:47;148219.25;;;-3.49;100.00
10006;BME280;5042;42.626;23.382;2024-01-10T05:44:14;148144.91;;;-3.78;100.00
10006;BME280;5042;42.626;23.382;2024-01-10T05:46:41;148180.78;;;-3.64;100.00
10006;BME280;5042;42.626;23.382;2024-01-10T05:49:09;148176.91;;;-3.66;100.00
10006;BME280;5042;42.626;23.382;2024-01-10T05:51:37;148205.13;;;-3.54;100.00
10006;BME280;5042;42.626;23.382;2024-01-10T05:54:04;148191.06;;;-3.60;100.00
10006;BME280;5042;42.626;23.382;2024-01-10T05:56:32;148183.31;;;-3.63;100.00
10006;BME280;5042;42.626;23.382;2024-01-10T05:58:59;148197.44;;;-3.57;100.00
10006;BME280;5042;42.626;23.382;2024-01-10T06:01:26;148214.13;;;-3.51;100.00
10006;BME280;5042;42.626;23.382;2024-01-10T06:03:54;148224.34;;;-3.47;100.00
10006;BME280;5042;42.626;23.382;2024-01-10T06:06:22;148223.06;;;-3.47;100.00
10006;BME280;5042;42.626;23.382;2024-01-10T06:08:50;148244.88;;;-3.38;100.00
10006;BME280;5042;42.626;23.382;2024-01-10T06:11:18;148226.94;;;-3.46;100.00
10006;BME280;5042;42.626;23.382;2024-01-10T06:13:45;148225.66;;;-3.46;100.00
10006;BME280;5042;42.626;23.382;2024-01-10T06:16:12;148255.16;;;-3.34;100.00
10006;BME280;5042;42.626;23.382;2024-01-10T06:18:39;148303.88;;;-3.15;100.00
10006;BME280;5042;42.626;23.382;2024-01-10T06:21:06;148275.66;;;-3.26;100.00
10006;BME280;5042;42.626;23.382;2024-01-10T06:23:33;148293.59;;;-3.19;100.00
10006;BME280;5042;42.626;23.382;2024-01-10T06:26:02;148285.94;;;-3.22;100.00
10006;BME280;5042;42.626;23.382;2024-01-10T06:28:29;148306.41;;;-3.14;100.00
10006;BME280;5042;42.626;23.382;2024-01-10T06:30:56;148344.91;;;-2.99;100.00
10006;BME280;5042;42.626;23.382;2024-01-10T06:33:23;148324.38;;;-3.07;100.00
10006;BME280;5042;42.626;23.382;2024-01-10T06:35:49;148293.59;;;-3.19;100.00
10006;BME280;5042;42.626;23.382;2024-01-10T06:38:16;148296.16;;;-3.18;100.00
10006;BME280;5042;42.626;23.382;2024-01-10T06:40:45;148285.94;;;-3.22;100.00
10006;BME280;5042;42.626;23.382;2024-01-10T06:43:14;148320.56;;;-3.08;100.00
10006;BME280;5042;42.626;23.382;2024-01-10T06:45:41;148293.59;;;-3.19;100.00
10006;BME280;5042;42.626;23.382;2024-01-10T06:48:09;148293.59;;;-3.19;100.00
10006;BME280;5042;42.626;23.382;2024-01-10T06:50:36;148171.84;;;-3.68;100.00
10006;BME280;5042;42.626;23.382;2024-01-10T06:53:03;148297.47;;;-3.17;100.00
10006;BME280;5042;42.626;23.382;2024-01-10T06:55:30;148285.94;;;-3.22;100.00
10006;BME280;5042;42.626;23.382;2024-01-10T06:57:57;148293.59;;;-3.19;100.00
10006;BME280;5042;42.626;23.382;2024-01-10T07:00:26;148324.38;;;-3.07;100.00
10006;BME280;5042;42.626;23.382;2024-01-10T07:02:52;148314.09;;;-3.11;100.00
10006;BME280;5042;42.626;23.382;2024-01-10T07:05:19;148332.09;;;-3.04;100.00
10006;BME280;5042;42.626;23.382;2024-01-10T07:07:46;148303.88;;;-3.15;100.00
10006;BME280;5042;42.626;23.382;2024-01-10T07:10:15;148309.00;;;-3.13;100.00
10006;BME280;5042;42.626;23.382;2024-01-10T07:12:42;148246.16;;;-3.38;100.00
10006;BME280;5042;42.626;23.382;2024-01-10T07:15:09;148250.03;;;-3.36;100.00
10006;BME280;5042;42.626;23.382;2024-01-10T07:17:38;148320.56;;;-3.08;100.00
10006;BME280;5042;42.626;23.382;2024-01-10T07:20:05;148309.00;;;-3.13;100.00
10006;BME280;5042;42.626;23.382;2024-01-10T07:22:33;148283.31;;;-3.23;100.00
10006;BME280;5042;42.626;23.382;2024-01-10T07:25:01;148221.81;;;-3.48;100.00
10006;BME280;5042;42.626;23.382;2024-01-10T07:27:27;148114.16;;;-3.91;100.00
10006;BME280;5042;42.626;23.382;2024-01-10T07:29:54;148039.81;;;-4.20;100.00
10006;BME280;5042;42.626;23.382;2024-01-10T07:32:23;147997.53;;;-4.37;100.00
10006;BME280;5042;42.626;23.382;2024-01-10T07:34:51;147968.06;;;-4.49;100.00
10006;BME280;5042;42.626;23.382;2024-01-10T07:37:18;147973.19;;;-4.47;100.00
10006;BME280;5042;42.626;23.382;2024-01-10T07:39:46;147983.47;;;-4.43;100.00
10006;BME280;5042;42.626;23.382;2024-01-10T07:42:13;147968.06;;;-4.49;100.00
10006;BME280;5042;42.626;23.382;2024-01-10T07:44:40;147954.00;;;-4.55;100.00
10006;BME280;5042;42.626;23.382;2024-01-10T07:47:07;147995.00;;;-4.38;100.00
10006;BME280;5042;42.626;23.382;2024-01-10T07:49:34;147997.53;;;-4.37;100.00
10006;BME280;5042;42.626;23.382;2024-01-10T07:52:03;147995.00;;;-4.38;100.00
10006;BME280;5042;42.626;23.382;2024-01-10T07:54:30;148014.19;;;-4.31;100.00
10006;BME280;5042;42.626;23.382;2024-01-10T07:56:58;148061.59;;;-4.12;100.00
10006;BME280;5042;42.626;23.382;2024-01-10T07:59:24;148105.16;;;-3.94;100.00
10006;BME280;5042;42.626;23.382;2024-01-10T08:01:55;148116.69;;;-3.90;100.00
10006;BME280;5042;42.626;23.382;2024-01-10T08:04:24;148121.81;;;-3.88;100.00
10006;BME280;5042;42.626;23.382;2024-01-10T08:06:52;148124.41;;;-3.87;100.00
10006;BME280;5042;42.626;23.382;2024-01-10T08:09:21;148141.03;;;-3.80;100.00
10006;BME280;5042;42.626;23.382;2024-01-10T08:11:49;148141.03;;;-3.80;100.00
10006;BME280;5042;42.626;23.382;2024-01-10T08:14:16;148182.06;;;-3.64;100.00
10006;BME280;5042;42.626;23.382;2024-01-10T08:16:43;148226.94;;;-3.46;100.00
10006;BME280;5042;42.626;23.382;2024-01-10T08:19:10;148252.56;;;-3.35;100.00
10006;BME280;5042;42.626;23.382;2024-01-10T08:21:37;148285.94;;;-3.22;100.00
10006;BME280;5042;42.626;23.382;2024-01-10T08:24:05;148306.41;;;-3.14;93.22
10006;BME280;5042;42.626;23.382;2024-01-10T08:26:34;148302.59;;;-3.15;93.75
10006;BME280;5042;42.626;23.382;2024-01-10T08:29:01;148303.88;;;-3.15;95.97
10006;BME280;5042;42.626;23.382;2024-01-10T08:31:27;148296.16;;;-3.18;97.27
10006;BME280;5042;42.626;23.382;2024-01-10T08:33:55;148229.47;;;-3.45;96.56
10006;BME280;5042;42.626;23.382;2024-01-10T08:36:22;148423.16;;;-2.67;98.35
10006;BME280;5042;42.626;23.382;2024-01-10T08:38:50;148595.13;;;-1.99;93.76
10006;BME280;5042;42.626;23.382;2024-01-10T08:41:17;148809.56;;;-1.13;96.20
10006;BME280;5042;42.626;23.382;2024-01-10T08:43:46;149021.59;;;-0.29;83.79
10006;BME280;5042;42.626;23.382;2024-01-10T08:46:13;149200.34;;;0.42;76.87
10006;BME280;5042;42.626;23.382;2024-01-10T08:48:40;149365.06;;;1.08;68.22
10006;BME280;5042;42.626;23.382;2024-01-10T08:51:07;149386.94;;;1.17;68.76
10006;BME280;5042;42.626;23.382;2024-01-10T08:53:35;149630.28;;;2.13;67.50
10006;BME280;5042;42.626;23.382;2024-01-10T08:56:02;149805.56;;;2.83;67.56
10006;BME280;5042;42.626;23.382;2024-01-10T08:58:29;149993.78;;;3.58;64.12
10006;BME280;5042;42.626;23.382;2024-01-10T09:00:57;150063.47;;;3.86;61.76
10006;BME280;5042;42.626;23.382;2024-01-10T09:03:24;150175.72;;;4.30;62.04
10006;BME280;5042;42.626;23.382;2024-01-10T09:05:51;150078.97;;;3.92;60.06
10006;BME280;5042;42.626;23.382;2024-01-10T09:08:18;150183.47;;;4.33;54.54
10006;BME280;5042;42.626;23.382;2024-01-10T09:10:45;150277.69;;;4.71;55.72
10006;BME280;5042;42.626;23.382;2024-01-10T09:13:13;150228.66;;;4.51;49.91
10006;BME280;5042;42.626;23.382;2024-01-10T09:15:40;150280.25;;;4.72;53.64
10006;BME280;5042;42.626;23.382;2024-01-10T09:18:09;150285.44;;;4.74;50.68
10006;BME280;5042;42.626;23.382;2024-01-10T09:20:36;150258.34;;;4.63;51.95
10006;BME280;5042;42.626;23.382;2024-01-10T09:23:04;150155.06;;;4.22;50.10
10006;BME280;5042;42.626;23.382;2024-01-10T09:25:30;150041.50;;;3.77;49.72
10006;BME280;5042;42.626;23.382;2024-01-10T09:27:57;149943.50;;;3.38;52.15
10006;BME280;5042;42.626;23.382;2024-01-10T09:30:24;149810.72;;;2.85;52.18
10006;BME280;5042;42.626;23.382;2024-01-10T09:32:51;149568.47;;;1.89;54.06
10006;BME280;5042;42.626;23.382;2024-01-10T09:35:19;149437.13;;;1.37;55.26
10006;BME280;5042;42.626;23.382;2024-01-10T09:37:46;149403.69;;;1.23;57.09
10006;BME280;5042;42.626;23.382;2024-01-10T09:40:14;149210.63;;;0.47;56.88
10006;BME280;5042;42.626;23.382;2024-01-10T09:42:43;149049.88;;;-0.17;57.03
10006;BME280;5042;42.626;23.382;2024-01-10T09:45:10;148864.81;;;-0.91;57.83
10006;BME280;5042;42.626;23.382;2024-01-10T09:47:39;148780.03;;;-1.25;62.19
10006;BME280;5042;42.626;23.382;2024-01-10T09:50:08;148696.53;;;-1.58;64.84
10006;BME280;5042;42.626;23.382;2024-01-10T09:52:41;148602.81;;;-1.96;65.38
10006;BME280;5042;42.626;23.382;2024-01-10T09:55:09;148606.69;;;-1.94;68.50
10006;BME280;5042;42.626;23.382;2024-01-10T09:57:39;148572.00;;;-2.08;76.63
10006;BME280;5042;42.626;23.382;2024-01-10T10:00:09;148550.16;;;-2.17;72.25
10006;BME280;5042;42.626;23.382;2024-01-10T10:02:38;148519.38;;;-2.29;74.62
10006;BME280;5042;42.626;23.382;2024-01-10T10:05:08;148477.03;;;-2.46;84.03
10006;BME280;5042;42.626;23.382;2024-01-10T10:07:45;148561.72;;;-2.12;78.20
10006;BME280;5042;42.626;23.382;2024-01-10T10:10:12;148575.88;;;-2.06;76.16
10006;BME280;5042;42.626;23.382;2024-01-10T10:12:45;148593.84;;;-1.99;79.98
10006;BME280;5042;42.626;23.382;2024-01-10T10:15:14;148600.25;;;-1.97;82.73
10006;BME280;5042;42.626;23.382;2024-01-10T10:17:42;148652.84;;;-1.76;79.54
10006;BME280;5042;42.626;23.382;2024-01-10T10:20:20;148480.91;;;-2.44;92.68
10006;BME280;5042;42.626;23.382;2024-01-10T10:22:58;148584.84;;;-2.03;87.30
10006;BME280;5042;42.626;23.382;2024-01-10T10:25:27;148593.84;;;-1.99;85.38
10006;BME280;5042;42.626;23.382;2024-01-10T10:27:55;148616.91;;;-1.90;88.71
10006;BME280;5042;42.626;23.382;2024-01-10T10:30:22;148616.91;;;-1.90;92.28
10006;BME280;5042;42.626;23.382;2024-01-10T10:32:49;148629.78;;;-1.85;87.73
10006;BME280;5042;42.626;23.382;2024-01-10T10:35:18;148519.38;;;-2.29;93.32
10006;BME280;5042;42.626;23.382;2024-01-10T10:37:45;148601.53;;;-1.96;99.31
10006;BME280;5042;42.626;23.382;2024-01-10T10:40:14;148550.16;;;-2.17;94.25
10006;BME280;5042;42.626;23.382;2024-01-10T10:42:44;148520.66;;;-2.28;93.52
10006;BME280;5042;42.626;23.382;2024-01-10T10:45:15;148491.13;;;-2.40;95.70
10006;BME280;5042;42.626;23.382;2024-01-10T10:47:43;148541.22;;;-2.20;94.77
10006;BME280;5042;42.626;23.382;2024-01-10T10:50:12;148555.31;;;-2.15;98.83
10006;BME280;5042;42.626;23.382;2024-01-10T10:52:42;148591.25;;;-2.00;96.87
10006;BME280;5042;42.626;23.382;2024-01-10T10:55:15;148541.22;;;-2.20;96.06
10006;BME280;5042;42.626;23.382;2024-01-10T10:57:44;148587.38;;;-2.02;94.40
10006;BME280;5042;42.626;23.382;2024-01-10T11:00:13;148593.84;;;-1.99;94.21
10006;BME280;5042;42.626;23.382;2024-01-10T11:02:42;148538.63;;;-2.21;95.49
10006;BME280;5042;42.626;23.382;2024-01-10T11:05:09;148555.31;;;-2.15;94.41
10006;BME280;5042;42.626;23.382;2024-01-10T11:07:36;148573.28;;;-2.07;94.15
10006;BME280;5042;42.626;23.382;2024-01-10T11:10:05;148573.28;;;-2.07;97.63
10006;BME280;5042;42.626;23.382;2024-01-10T11:12:50;148578.41;;;-2.05;98.56
10006;BME280;5042;42.626;23.382;2024-01-10T11:15:34;148629.78;;;-1.85;96.62
10006;BME280;5042;42.626;23.382;2024-01-10T11:18:18;148647.75;;;-1.78;94.84
10006;BME280;5042;42.626;23.382;2024-01-10T11:21:09;148665.75;;;-1.71;99.26
10006;BME280;5042;42.626;23.382;2024-01-10T11:23:42;148683.72;;;-1.63;98.49
10006;BME280;5042;42.626;23.382;2024-01-10T11:26:11;148697.81;;;-1.58;97.26
10006;BME280;5042;42.626;23.382;2024-01-10T11:28:41;148724.81;;;-1.47;100.00
10006;BME280;5042;42.626;23.382;2024-01-10T11:31:09;148700.38;;;-1.57;100.00
10006;BME280;5042;42.626;23.382;2024-01-10T11:33:36;148692.69;;;-1.60;100.00
10006;BME280;5042;42.626;23.382;2024-01-10T11:36:15;148634.88;;;-1.83;100.00
10006;BME280;5042;42.626;23.382;2024-01-10T11:38:44;148665.75;;;-1.71;100.00
10006;BME280;5042;42.626;23.382;2024-01-10T11:41:21;148663.16;;;-1.72;100.00
10006;BME280;5042;42.626;23.382;2024-01-10T11:44:27;148646.44;;;-1.78;100.00
10006;BME280;5042;42.626;23.382;2024-01-10T11:46:54;148646.44;;;-1.78;100.00
10006;BME280;5042;42.626;23.382;2024-01-10T11:49:23;148602.81;;;-1.96;100.00
10006;BME280;5042;42.626;23.382;2024-01-10T11:51:52;148604.09;;;-1.95;100.00
10006;BME280;5042;42.626;23.382;2024-01-10T11:54:36;148643.91;;;-1.79;100.00
10006;BME280;5042;42.626;23.382;2024-01-10T11:57:07;148641.34;;;-1.80;100.00
10006;BME280;5042;42.626;23.382;2024-01-10T11:59:37;148622.06;;;-1.88;100.00
10006;BME280;5042;42.626;23.382;2024-01-10T12:02:04;148663.16;;;-1.72;100.00
10006;BME280;5042;42.626;23.382;2024-01-10T12:04:32;148701.69;;;-1.56;100.00
10006;BME280;5042;42.626;23.382;2024-01-10T12:07:02;148695.28;;;-1.59;100.00
10006;BME280;5042;42.626;23.382;2024-01-10T12:09:29;148691.41;;;-1.60;100.00
10006;BME280;5042;42.626;23.382;2024-01-10T12:11:56;148686.25;;;-1.62;100.00
10006;BME280;5042;42.626;23.382;2024-01-10T12:14:23;148677.28;;;-1.66;100.00
10006;BME280;5042;42.626;23.382;2024-01-10T12:16:52;148587.38;;;-2.02;100.00
10006;BME280;5042;42.626;23.382;2024-01-10T12:19:19;148656.72;;;-1.74;100.00
10006;BME280;5042;42.626;23.382;2024-01-10T12:21:46;148651.59;;;-1.76;100.00
10006;BME280;5042;42.626;23.382;2024-01-10T12:24:13;148668.28;;;-1.69;100.00
10006;BME280;5042;42.626;23.382;2024-01-10T12:26:43;148668.28;;;-1.69;100.00
10006;BME280;5042;42.626;23.382;2024-01-10T12:29:11;148646.44;;;-1.78;100.00
10006;BME280;5042;42.626;23.382;2024-01-10T12:31:38;148660.59;;;-1.73;100.00
10006;BME280;5042;42.626;23.382;2024-01-10T12:34:08;148688.84;;;-1.61;100.00
10006;BME280;5042;42.626;23.382;2024-01-10T12:36:36;148686.25;;;-1.62;100.00
10006;BME280;5042;42.626;23.382;2024-01-10T12:39:03;148693.94;;;-1.59;100.00
10006;BME280;5042;42.626;23.382;2024-01-10T12:41:32;148693.94;;;-1.59;100.00
10006;BME280;5042;42.626;23.382;2024-01-10T12:44:00;148678.56;;;-1.65;100.00
10006;BME280;5042;42.626;23.382;2024-01-10T12:46:29;148679.84;;;-1.65;100.00